sensor_id;sensor_type;location;lat;lon;timestamp;temperature;humidity
8008;DHT22;4049;49.468;11.200;2024-03-02T00:01:32;5.80;99.90
8008;DHT22;4049;49.468;11.200;2024-03-02T00:03:59;5.80;99.90
8008;DHT22;4049;49.468;11.200;2024-03-02T00:06:27;5.80;99.90
8008;DHT22;4049;49.468;11.200;2024-03-02T00:08:58;5.80;99.90
8008;DHT22;4049;49.468;11.200;2024-03-02T00:11:25;5.80;99.90
8008;DHT22;4049;49.468;11.200;2024-03-02T00:13:52;5.80;99.90
8008;DHT22;4049;49.468;11.200;2024-03-02T00:16:19;5.80;99.90
8008;DHT22;4049;49.468;11.200;2024-03-02T00:18:46;5.80;99.90
8008;DHT22;4049;49.468;11.200;2024-03-02T00:21:13;5.70;99.90
8008;DHT22;4049;49.468;11.200;2024-03-02T00:23:43;5.80;99.90
8008;DHT22;4049;49.468;11.200;2024-03-02T00:26:11;5.70;99.90
8008;DHT22;4049;49.468;11.200;2024-03-02T00:28:39;5.70;99.90
8008;DHT22;4049;49.468;11.200;2024-03-02T00:31:09;5.70;99.90
8008;DHT22;4049;49.468;11.200;2024-03-02T00:33:40;5.70;99.90
8008;DHT22;4049;49.468;11.200;2024-03-02T00:36:08;5.70;99.90
8008;DHT22;4049;49.468;11.200;2024-03-02T00:38:46;5.70;99.90
8008;DHT22;4049;49.468;11.200;2024-03-02T00:41:17;5.70;99.90
8008;DHT22;4049;49.468;11.200;2024-03-02T00:43:48;5.70;99.90
8008;DHT22;4049;49.468;11.200;2024-03-02T00:46:18;5.70;99.90
8008;DHT22;4049;49.468;11.200;2024-03-02T00:48:51;5.70;99.90
8008;DHT22;4049;49.468;11.200;2024-03-02T00:51:20;5.70;99.90
8008;DHT22;4049;49.468;11.200;2024-03-02T00:53:48;5.70;99.90
8008;DHT22;4049;49.468;11.200;2024-03-02T00:56:16;5.70;99.90
8008;DHT22;4049;49.468;11.200;2024-03-02T00:58:43;5.70;99.90
8008;DHT22;4049;49.468;11.200;2024-03-02T01:01:10;5.70;99.90
8008;DHT22;4049;49.468;11.200;2024-03-02T01:03:37;5.70;99.90
8008;DHT22;4049;49.468;11.200;2024-03-02T01:06:05;5.70;99.90
8008;DHT22;4049;49.468;11.200;2024-03-02T01:08:33;5.70;99.90
8008;DHT22;4049;49.468;11.200;2024-03-02T01:11:01;5.70;99.90
8008;DHT22;4049;49.468;11.200;2024-03-02T01:13:28;5.70;99.90
8008;DHT22;4049;49.468;11.200;2024-03-02T01:15:55;5.70;99.90
8008;DHT22;4049;49.468;11.200;2024-03-02T01:18:23;5.70;99.90
8008;DHT22;4049;49.468;11.200;2024-03-02T01:20:50;5.70;99.90
8008;DHT22;4049;49.468;11.200;2024-03-02T01:23:18;5.70;99.90
8008;DHT22;4049;49.468;11.200;2024-03-02T01:25:46;5.70;99.90
8008;DHT22;4049;49.468;11.200;2024-03-02T01:28:14;5.70;99.90
8008;DHT22;4049;49.468;11.200;2024-03-02T01:30:42;5.70;99.90
8008;DHT22;4049;49.468;11.200;2024-03-02T01:33:09;5.70;99.90
8008;DHT22;4049;49.468;11.200;2024-03-02T01:35:36;5.70;99.90
8008;DHT22;4049;49.468;11.200;2024-03-02T01:38:03;5.70;99.90
8008;DHT22;4049;49.468;11.200;2024-03-02T01:40:32;5.70;99.90
8008;DHT22;4049;49.468;11.200;2024-03-02T01:42:59;5.70;99.90
8008;DHT22;4049;49.468;11.200;2024-03-02T01:45:27;5.60;99.90
8008;DHT22;4049;49.468;11.200;2024-03-02T01:47:54;5.60;99.90
8008;DHT22;4049;49.468;11.200;2024-03-02T01:50:27;5.60;99.90
8008;DHT22;4049;49.468;11.200;2024-03-02T01:52:55;5.60;99.90
8008;DHT22;4049;49.468;11.200;2024-03-02T01:55:22;5.60;99.90
8008;DHT22;4049;49.468;11.200;2024-03-02T01:57:50;5.60;99.90
8008;DHT22;4049;49.468;11.200;2024-03-02T02:00:18;5.60;99.90
8008;DHT22;4049;49.468;11.200;2024-03-02T02:02:46;5.60;99.90
8008;DHT22;4049;49.468;11.200;2024-03-02T02:05:15;5.60;99.90
8008;DHT22;4049;49.468;11.200;2024-03-02T02:07:42;5.60;99.90
8008;DHT22;4049;49.468;11.200;2024-03-02T02:10:10;5.60;99.90
8008;DHT22;4049;49.468;11.200;2024-03-02T02:12:40;5.60;99.90
8008;DHT22;4049;49.468;11.200;2024-03-02T02:15:22;5.60;99.90
8008;DHT22;4049;49.468;11.200;2024-03-02T02:17:50;5.60;99.90
8008;DHT22;4049;49.468;11.200;2024-03-02T02:20:17;5.60;99.90
8008;DHT22;4049;49.468;11.200;2024-03-02T02:22:57;5.60;99.90
8008;DHT22;4049;49.468;11.200;2024-03-02T02:25:25;5.60;99.90
8008;DHT22;4049;49.468;11.200;2024-03-02T02:27:52;5.60;99.90
8008;DHT22;4049;49.468;11.200;2024-03-02T02:30:19;5.60;99.90
8008;DHT22;4049;49.468;11.200;2024-03-02T02:32:47;5.60;99.90
8008;DHT22;4049;49.468;11.200;2024-03-02T02:35:14;5.60;99.90
8008;DHT22;4049;49.468;11.200;2024-03-02T02:37:42;5.60;99.90
8008;DHT22;4049;49.468;11.200;2024-03-02T02:40:11;5.50;99.90
8008;DHT22;4049;49.468;11.200;2024-03-02T02:42:38;5.60;99.90
8008;DHT22;4049;49.468;11.200;2024-03-02T02:45:06;5.60;99.90
8008;DHT22;4049;49.468;11.200;2024-03-02T02:47:33;5.60;99.90
8008;DHT22;4049;49.468;11.200;2024-03-02T02:50:01;5.60;99.90
8008;DHT22;4049;49.468;11.200;2024-03-02T02:52:31;5.60;99.90
8008;DHT22;4049;49.468;11.200;2024-03-02T02:55:01;5.60;99.90
8008;DHT22;4049;49.468;11.200;2024-03-02T02:57:29;5.60;99.90
8008;DHT22;4049;49.468;11.200;2024-03-02T03:00:00;5.60;99.90
8008;DHT22;4049;49.468;11.200;2024-03-02T03:02:28;5.60;99.90
8008;DHT22;4049;49.468;11.200;2024-03-02T03:04:54;5.60;99.90
8008;DHT22;4049;49.468;11.200;2024-03-02T03:07:22;5.60;99.90
8008;DHT22;4049;49.468;11.200;2024-03-02T03:09:49;5.60;99.90
8008;DHT22;4049;49.468;11.200;2024-03-02T03:12:16;5.60;99.90
8008;DHT22;4049;49.468;11.200;2024-03-02T03:14:44;5.60;99.90
8008;DHT22;4049;49.468;11.200;2024-03-02T03:17:11;5.60;99.90
8008;DHT22;4049;49.468;11.200;2024-03-02T03:19:38;5.60;99.90
8008;DHT22;4049;49.468;11.200;2024-03-02T03:22:05;5.60;99.90
8008;DHT22;4049;49.468;11.200;2024-03-02T03:24:32;5.60;99.90
8008;DHT22;4049;49.468;11.200;2024-03-02T03:26:59;5.60;99.90
8008;DHT22;4049;49.468;11.200;2024-03-02T03:29:26;5.60;99.90
8008;DHT22;4049;49.468;11.200;2024-03-02T03:31:54;5.60;99.90
8008;DHT22;4049;49.468;11.200;2024-03-02T03:34:21;5.60;99.90
8008;DHT22;4049;49.468;11.200;2024-03-02T03:36:48;5.60;99.90
8008;DHT22;4049;49.468;11.200;2024-03-02T03:39:15;5.60;99.90
8008;DHT22;4049;49.468;11.200;2024-03-02T03:41:42;5.60;99.90
8008;DHT22;4049;49.468;11.200;2024-03-02T03:44:09;5.60;99.90
8008;DHT22;4049;49.468;11.200;2024-03-02T03:46:35;5.60;99.90
8008;DHT22;4049;49.468;11.200;2024-03-02T03:49:04;5.60;99.90
8008;DHT22;4049;49.468;11.200;2024-03-02T03:51:30;5.60;99.90
8008;DHT22;4049;49.468;11.200;2024-03-02T03:53:57;5.70;99.90
8008;DHT22;4049;49.468;11.200;2024-03-02T03:56:25;5.70;99.90
8008;DHT22;4049;49.468;11.200;2024-03-02T03:58:52;5.70;99.90
8008;DHT22;4049;49.468;11.200;2024-03-02T04:01:19;5.70;99.90
8008;DHT22;4049;49.468;11.200;2024-03-02T04:03:47;5.60;99.90
8008;DHT22;4049;49.468;11.200;2024-03-02T04:06:15;5.60;99.90
8008;DHT22;4049;49.468;11.200;2024-03-02T04:08:43;5.70;99.90
8008;DHT22;4049;49.468;11.200;2024-03-02T04:11:09;5.70;99.90
8008;DHT22;4049;49.468;11.200;2024-03-02T04:13:36;5.70;99.90
8008;DHT22;4049;49.468;11.200;2024-03-02T04:16:04;5.70;99.90
8008;DHT22;4049;49.468;11.200;2024-03-02T04:18:31;5.70;99.90
8008;DHT22;4049;49.468;11.200;2024-03-02T04:20:58;5.70;99.90
8008;DHT22;4049;49.468;11.200;2024-03-02T04:23:27;5.70;99.90
8008;DHT22;4049;49.468;11.200;2024-03-02T04:25:57;5.70;99.90
8008;DHT22;4049;49.468;11.200;2024-03-02T04:28:23;5.70;99.90
8008;DHT22;4049;49.468;11.200;2024-03-02T04:30:50;5.70;99.90
8008;DHT22;4049;49.468;11.200;2024-03-02T04:33:17;5.70;99.90
8008;DHT22;4049;49.468;11.200;2024-03-02T04:35:44;5.70;99.90
8008;DHT22;4049;49.468;11.200;2024-03-02T04:38:12;5.70;99.90
8008;DHT22;4049;49.468;11.200;2024-03-02T04:40:40;5.70;99.90
8008;DHT22;4049;49.468;11.200;2024-03-02T04:43:07;5.70;99.90
8008;DHT22;4049;49.468;11.200;2024-03-02T04:45:35;5.60;99.90
8008;DHT22;4049;49.468;11.200;2024-03-02T04:48:02;5.60;99.90
8008;DHT22;4049;49.468;11.200;2024-03-02T04:50:29;5.60;99.90
8008;DHT22;4049;49.468;11.200;2024-03-02T04:52:56;5.60;99.90
8008;DHT22;4049;49.468;11.200;2024-03-02T04:55:23;5.60;99.90
8008;DHT22;4049;49.468;11.200;2024-03-02T04:58:12;5.50;99.90
8008;DHT22;4049;49.468;11.200;2024-03-02T05:00:39;5.50;99.90
8008;DHT22;4049;49.468;11.200;2024-03-02T05:03:06;5.50;99.90
8008;DHT22;4049;49.468;11.200;2024-03-02T05:05:32;5.40;99.90
8008;DHT22;4049;49.468;11.200;2024-03-02T05:08:00;5.40;99.90
8008;DHT22;4049;49.468;11.200;2024-03-02T05:10:27;5.40;99.90
8008;DHT22;4049;49.468;11.200;2024-03-02T05:12:54;5.40;99.90
8008;DHT22;4049;49.468;11.200;2024-03-02T05:15:26;5.30;99.90
8008;DHT22;4049;49.468;11.200;2024-03-02T05:17:53;5.30;99.90
8008;DHT22;4049;49.468;11.200;2024-03-02T05:20:20;5.30;99.90
8008;DHT22;4049;49.468;11.200;2024-03-02T05:22:46;5.20;99.90
8008;DHT22;4049;49.468;11.200;2024-03-02T05:25:14;5.20;99.90
8008;DHT22;4049;49.468;11.200;2024-03-02T05:27:41;5.20;99.90
8008;DHT22;4049;49.468;11.200;2024-03-02T05:30:09;5.10;99.90
8008;DHT22;4049;49.468;11.200;2024-03-02T05:32:37;5.10;99.90
8008;DHT22;4049;49.468;11.200;2024-03-02T05:35:05;5.10;99.90
8008;DHT22;4049;49.468;11.200;2024-03-02T05:37:32;5.00;99.90
8008;DHT22;4049;49.468;11.200;2024-03-02T05:39:59;5.00;99.90
8008;DHT22;4049;49.468;11.200;2024-03-02T05:42:26;5.00;99.90
8008;DHT22;4049;49.468;11.200;2024-03-02T05:44:53;5.00;99.90
8008;DHT22;4049;49.468;11.200;2024-03-02T05:47:20;4.90;99.90
8008;DHT22;4049;49.468;11.200;2024-03-02T05:49:48;4.90;99.90
8008;DHT22;4049;49.468;11.200;2024-03-02T05:52:15;4.90;99.90
8008;DHT22;4049;49.468;11.200;2024-03-02T05:54:42;4.90;99.90
8008;DHT22;4049;49.468;11.200;2024-03-02T05:57:09;4.90;99.90
8008;DHT22;4049;49.468;11.200;2024-03-02T05:59:59;4.90;99.90
8008;DHT22;4049;49.468;11.200;2024-03-02T06:02:26;4.90;99.90
8008;DHT22;4049;49.468;11.200;2024-03-02T06:04:56;4.90;99.90
8008;DHT22;4049;49.468;11.200;2024-03-02T06:07:22;4.90;99.90
8008;DHT22;4049;49.468;11.200;2024-03-02T06:09:49;4.90;99.90
8008;DHT22;4049;49.468;11.200;2024-03-02T06:12:18;4.80;99.90
8008;DHT22;4049;49.468;11.200;2024-03-02T06:14:45;4.90;99.90
8008;DHT22;4049;49.468;11.200;2024-03-02T06:17:12;4.90;99.90
8008;DHT22;4049;49.468;11.200;2024-03-02T06:19:39;4.90;99.90
8008;DHT22;4049;49.468;11.200;2024-03-02T06:22:07;4.90;99.90
8008;DHT22;4049;49.468;11.200;2024-03-02T06:24:36;4.80;99.90
8008;DHT22;4049;49.468;11.200;2024-03-02T06:27:03;4.80;99.90
8008;DHT22;4049;49.468;11.200;2024-03-02T06:29:32;4.80;99.90
8008;DHT22;4049;49.468;11.200;2024-03-02T06:31:59;4.80;99.90
8008;DHT22;4049;49.468;11.200;2024-03-02T06:34:26;4.80;99.90
8008;DHT22;4049;49.468;11.200;2024-03-02T06:36:53;4.90;99.90
8008;DHT22;4049;49.468;11.200;2024-03-02T06:39:22;4.90;99.90
8008;DHT22;4049;49.468;11.200;2024-03-02T06:41:49;4.90;99.90
8008;DHT22;4049;49.468;11.200;2024-03-02T06:44:16;4.90;99.90
8008;DHT22;4049;49.468;11.200;2024-03-02T06:46:43;4.90;99.90
8008;DHT22;4049;49.468;11.200;2024-03-02T06:49:10;4.90;99.90
8008;DHT22;4049;49.468;11.200;2024-03-02T06:51:37;4.90;99.90
8008;DHT22;4049;49.468;11.200;2024-03-02T06:54:04;4.90;99.90
8008;DHT22;4049;49.468;11.200;2024-03-02T06:56:32;5.00;99.90
8008;DHT22;4049;49.468;11.200;2024-03-02T06:58:59;5.00;99.90
8008;DHT22;4049;49.468;11.200;2024-03-02T07:01:26;5.00;99.90
8008;DHT22;4049;49.468;11.200;2024-03-02T07:03:53;5.00;99.90
8008;DHT22;4049;49.468;11.200;2024-03-02T07:06:20;5.00;99.90
8008;DHT22;4049;49.468;11.200;2024-03-02T07:08:47;5.10;99.90
8008;DHT22;4049;49.468;11.200;2024-03-02T07:11:17;5.10;99.90
8008;DHT22;4049;49.468;11.200;2024-03-02T07:13:47;5.10;99.90
8008;DHT22;4049;49.468;11.200;2024-03-02T07:16:14;5.10;99.90
8008;DHT22;4049;49.468;11.200;2024-03-02T07:18:55;5.20;99.90
8008;DHT22;4049;49.468;11.200;2024-03-02T07:21:23;5.20;99.90
8008;DHT22;4049;49.468;11.200;2024-03-02T07:23:50;5.20;99.90
8008;DHT22;4049;49.468;11.200;2024-03-02T07:26:17;5.30;99.90
8008;DHT22;4049;49.468;11.200;2024-03-02T07:28:48;5.30;99.90
8008;DHT22;4049;49.468;11.200;2024-03-02T07:31:15;5.40;99.90
8008;DHT22;4049;49.468;11.200;2024-03-02T07:33:44;5.50;99.90
8008;DHT22;4049;49.468;11.200;2024-03-02T07:36:11;5.60;99.90
8008;DHT22;4049;49.468;11.200;2024-03-02T07:38:38;5.60;99.90
8008;DHT22;4049;49.468;11.200;2024-03-02T07:41:06;5.70;99.90
8008;DHT22;4049;49.468;11.200;2024-03-02T07:43:33;5.90;99.90
8008;DHT22;4049;49.468;11.200;2024-03-02T07:46:01;6.00;99.90
8008;DHT22;4049;49.468;11.200;2024-03-02T07:48:29;6.20;99.90
8008;DHT22;4049;49.468;11.200;2024-03-02T07:50:56;6.30;99.90
8008;DHT22;4049;49.468;11.200;2024-03-02T07:53:23;6.40;99.90
8008;DHT22;4049;49.468;11.200;2024-03-02T07:55:50;6.60;99.90
8008;DHT22;4049;49.468;11.200;2024-03-02T07:58:17;6.70;99.90
8008;DHT22;4049;49.468;11.200;2024-03-02T08:00:45;6.80;99.90
8008;DHT22;4049;49.468;11.200;2024-03-02T08:03:13;6.90;99.90
8008;DHT22;4049;49.468;11.200;2024-03-02T08:05:40;7.00;99.90
8008;DHT22;4049;49.468;11.200;2024-03-02T08:08:07;7.10;99.90
8008;DHT22;4049;49.468;11.200;2024-03-02T08:10:34;7.10;99.90
8008;DHT22;4049;49.468;11.200;2024-03-02T08:13:01;7.20;99.90
8008;DHT22;4049;49.468;11.200;2024-03-02T08:15:28;7.20;99.90
8008;DHT22;4049;49.468;11.200;2024-03-02T08:17:54;7.30;99.90
8008;DHT22;4049;49.468;11.200;2024-03-02T08:20:23;7.30;99.90
8008;DHT22;4049;49.468;11.200;2024-03-02T08:22:50;7.40;99.90
8008;DHT22;4049;49.468;11.200;2024-03-02T08:25:17;7.50;99.90
8008;DHT22;4049;49.468;11.200;2024-03-02T08:27:44;7.50;99.90
8008;DHT22;4049;49.468;11.200;2024-03-02T08:30:12;7.60;99.90
8008;DHT22;4049;49.468;11.200;2024-03-02T08:32:39;7.60;99.90
8008;DHT22;4049;49.468;11.200;2024-03-02T08:35:06;7.60;99.90
8008;DHT22;4049;49.468;11.200;2024-03-02T08:37:35;7.70;99.90
8008;DHT22;4049;49.468;11.200;2024-03-02T08:40:04;7.80;99.90
8008;DHT22;4049;49.468;11.200;2024-03-02T08:42:32;7.90;99.90
8008;DHT22;4049;49.468;11.200;2024-03-02T08:45:00;7.90;99.90
8008;DHT22;4049;49.468;11.200;2024-03-02T08:47:27;8.00;99.90
8008;DHT22;4049;49.468;11.200;2024-03-02T08:49:54;8.10;99.90
8008;DHT22;4049;49.468;11.200;2024-03-02T08:52:21;8.20;99.90
8008;DHT22;4049;49.468;11.200;2024-03-02T08:54:49;8.30;99.90
8008;DHT22;4049;49.468;11.200;2024-03-02T08:57:16;8.30;99.90
8008;DHT22;4049;49.468;11.200;2024-03-02T08:59:43;8.40;99.90
8008;DHT22;4049;49.468;11.200;2024-03-02T09:02:10;8.50;99.90
8008;DHT22;4049;49.468;11.200;2024-03-02T09:04:37;8.50;99.90
8008;DHT22;4049;49.468;11.200;2024-03-02T09:07:04;8.70;99.90
8008;DHT22;4049;49.468;11.200;2024-03-02T09:09:30;8.80;99.90
8008;DHT22;4049;49.468;11.200;2024-03-02T09:11:59;8.90;99.90
8008;DHT22;4049;49.468;11.200;2024-03-02T09:14:26;9.00;99.90
8008;DHT22;4049;49.468;11.200;2024-03-02T09:16:53;9.10;99.90
8008;DHT22;4049;49.468;11.200;2024-03-02T09:19:20;9.20;99.90
8008;DHT22;4049;49.468;11.200;2024-03-02T09:21:47;9.30;99.90
8008;DHT22;4049;49.468;11.200;2024-03-02T09:24:14;9.40;99.90
8008;DHT22;4049;49.468;11.200;2024-03-02T09:26:41;9.50;99.90
8008;DHT22;4049;49.468;11.200;2024-03-02T09:29:09;9.50;99.90
8008;DHT22;4049;49.468;11.200;2024-03-02T09:31:39;9.60;99.90
8008;DHT22;4049;49.468;11.200;2024-03-02T09:34:06;9.70;99.90
8008;DHT22;4049;49.468;11.200;2024-03-02T09:36:33;9.80;99.90
8008;DHT22;4049;49.468;11.200;2024-03-02T09:39:00;9.80;99.90
8008;DHT22;4049;49.468;11.200;2024-03-02T09:41:29;9.90;99.90
8008;DHT22;4049;49.468;11.200;2024-03-02T09:43:56;10.00;99.90
8008;DHT22;4049;49.468;11.200;2024-03-02T09:46:25;10.10;99.90
8008;DHT22;4049;49.468;11.200;2024-03-02T09:48:52;10.20;99.90
8008;DHT22;4049;49.468;11.200;2024-03-02T09:51:19;10.30;99.90
8008;DHT22;4049;49.468;11.200;2024-03-02T09:53:47;10.40;99.90
8008;DHT22;4049;49.468;11.200;2024-03-02T09:56:14;10.40;99.90
8008;DHT22;4049;49.468;11.200;2024-03-02T09:58:44;10.50;99.90
8008;DHT22;4049;49.468;11.200;2024-03-02T10:01:10;10.60;99.90
8008;DHT22;4049;49.468;11.200;2024-03-02T10:03:39;10.70;99.90
8008;DHT22;4049;49.468;11.200;2024-03-02T10:06:19;10.80;99.90
8008;DHT22;4049;49.468;11.200;2024-03-02T10:08:46;10.90;99.90
8008;DHT22;4049;49.468;11.200;2024-03-02T10:11:26;10.90;99.90
8008;DHT22;4049;49.468;11.200;2024-03-02T10:14:04;11.00;99.90
8008;DHT22;4049;49.468;11.200;2024-03-02T10:16:34;11.10;99.90
8008;DHT22;4049;49.468;11.200;2024-03-02T10:19:15;11.20;99.90
8008;DHT22;4049;49.468;11.200;2024-03-02T10:21:43;11.20;99.90
8008;DHT22;4049;49.468;11.200;2024-03-02T10:24:10;11.30;99.90
8008;DHT22;4049;49.468;11.200;2024-03-02T10:26:38;11.30;99.90
8008;DHT22;4049;49.468;11.200;2024-03-02T10:29:05;11.40;99.90
8008;DHT22;4049;49.468;11.200;2024-03-02T10:31:32;11.40;99.90
8008;DHT22;4049;49.468;11.200;2024-03-02T10:33:59;11.40;99.90
8008;DHT22;4049;49.468;11.200;2024-03-02T10:36:28;11.30;99.90
8008;DHT22;4049;49.468;11.200;2024-03-02T10:38:56;11.30;99.90
8008;DHT22;4049;49.468;11.200;2024-03-02T10:41:26;11.40;99.90
8008;DHT22;4049;49.468;11.200;2024-03-02T10:43:53;11.40;99.90
8008;DHT22;4049;49.468;11.200;2024-03-02T10:46:28;11.50;99.90
8008;DHT22;4049;49.468;11.200;2024-03-02T10:48:55;11.60;99.90
8008;DHT22;4049;49.468;11.200;2024-03-02T10:51:24;11.60;99.90
8008;DHT22;4049;49.468;11.200;2024-03-02T10:53:52;11.70;99.90
8008;DHT22;4049;49.468;11.200;2024-03-02T10:56:24;11.80;99.90
8008;DHT22;4049;49.468;11.200;2024-03-02T10:59:01;11.80;99.90
8008;DHT22;4049;49.468;11.200;2024-03-02T11:01:29;11.90;99.90
8008;DHT22;4049;49.468;11.200;2024-03-02T11:03:59;11.90;99.90
8008;DHT22;4049;49.468;11.200;2024-03-02T11:06:28;12.00;99.90
8008;DHT22;4049;49.468;11.200;2024-03-02T11:09:04;12.10;99.90
8008;DHT22;4049;49.468;11.200;2024-03-02T11:11:36;12.20;99.90
8008;DHT22;4049;49.468;11.200;2024-03-02T11:14:07;12.30;99.90
8008;DHT22;4049;49.468;11.200;2024-03-02T11:16:36;12.40;99.90
8008;DHT22;4049;49.468;11.200;2024-03-02T11:19:05;12.60;99.90
8008;DHT22;4049;49.468;11.200;2024-03-02T11:21:34;12.70;99.90
8008;DHT22;4049;49.468;11.200;2024-03-02T11:24:29;12.70;99.90
8008;DHT22;4049;49.468;11.200;2024-03-02T11:26:59;12.80;99.90
8008;DHT22;4049;49.468;11.200;2024-03-02T11:29:45;12.70;99.90
8008;DHT22;4049;49.468;11.200;2024-03-02T11:32:18;12.70;99.90
8008;DHT22;4049;49.468;11.200;2024-03-02T11:34:47;12.70;99.90
8008;DHT22;4049;49.468;11.200;2024-03-02T11:37:15;12.80;99.90
8008;DHT22;4049;49.468;11.200;2024-03-02T11:39:45;12.90;99.90
8008;DHT22;4049;49.468;11.200;2024-03-02T11:42:13;13.00;99.90
8008;DHT22;4049;49.468;11.200;2024-03-02T11:44:42;13.20;99.90
8008;DHT22;4049;49.468;11.200;2024-03-02T11:47:12;13.30;99.90
8008;DHT22;4049;49.468;11.200;2024-03-02T11:49:42;13.40;99.90
8008;DHT22;4049;49.468;11.200;2024-03-02T11:52:11;13.50;99.90
8008;DHT22;4049;49.468;11.200;2024-03-02T11:54:40;13.70;99.90
8008;DHT22;4049;49.468;11.200;2024-03-02T11:57:14;13.80;99.90
8008;DHT22;4049;49.468;11.200;2024-03-02T11:59:41;13.90;99.90
8008;DHT22;4049;49.468;11.200;2024-03-02T12:02:14;14.00;99.90
8008;DHT22;4049;49.468;11.200;2024-03-02T12:04:42;14.00;99.90
8008;DHT22;4049;49.468;11.200;2024-03-02T12:07:10;14.10;99.90
8008;DHT22;4049;49.468;11.200;2024-03-02T12:09:37;14.10;99.90
8008;DHT22;4049;49.468;11.200;2024-03-02T12:12:05;14.00;99.90
8008;DHT22;4049;49.468;11.200;2024-03-02T12:14:34;14.00;99.90
8008;DHT22;4049;49.468;11.200;2024-03-02T12:17:01;14.00;99.90
8008;DHT22;4049;49.468;11.200;2024-03-02T12:19:29;13.90;99.90
8008;DHT22;4049;49.468;11.200;2024-03-02T12:21:56;13.90;99.90
8008;DHT22;4049;49.468;11.200;2024-03-02T12:24:27;13.90;99.90
8008;DHT22;4049;49.468;11.200;2024-03-02T12:26:54;13.90;99.90
8008;DHT22;4049;49.468;11.200;2024-03-02T12:29:22;13.90;99.90
8008;DHT22;4049;49.468;11.200;2024-03-02T12:31:52;13.90;99.90
8008;DHT22;4049;49.468;11.200;2024-03-02T12:34:19;13.90;99.90
8008;DHT22;4049;49.468;11.200;2024-03-02T12:36:46;13.90;99.90
8008;DHT22;4049;49.468;11.200;2024-03-02T12:39:15;13.90;99.90
8008;DHT22;4049;49.468;11.200;2024-03-02T12:41:45;13.90;99.90
8008;DHT22;4049;49.468;11.200;2024-03-02T12:44:16;13.90;99.90
8008;DHT22;4049;49.468;11.200;2024-03-02T12:46:43;13.90;99.90
8008;DHT22;4049;49.468;11.200;2024-03-02T12:49:13;13.90;99.90
8008;DHT22;4049;49.468;11.200;2024-03-02T12:51:42;14.00;99.90
8008;DHT22;4049;49.468;11.200;2024-03-02T12:54:09;14.00;99.90
8008;DHT22;4049;49.468;11.200;2024-03-02T12:56:37;14.10;99.90
8008;DHT22;4049;49.468;11.200;2024-03-02T12:59:04;14.10;99.90
8008;DHT22;4049;49.468;11.200;2024-03-02T13:01:31;14.10;99.90
8008;DHT22;4049;49.468;11.200;2024-03-02T13:03:59;14.20;99.90
8008;DHT22;4049;49.468;11.200;2024-03-02T13:06:27;14.30;99.90
8008;DHT22;4049;49.468;11.200;2024-03-02T13:08:54;14.30;99.90
8008;DHT22;4049;49.468;11.200;2024-03-02T13:11:23;14.40;99.90
8008;DHT22;4049;49.468;11.200;2024-03-02T13:13:51;14.50;99.90
8008;DHT22;4049;49.468;11.200;2024-03-02T13:16:18;14.50;99.90
8008;DHT22;4049;49.468;11.200;2024-03-02T13:18:45;14.60;99.90
8008;DHT22;4049;49.468;11.200;2024-03-02T13:21:13;14.60;99.90
8008;DHT22;4049;49.468;11.200;2024-03-02T13:23:41;14.60;99.90
8008;DHT22;4049;49.468;11.200;2024-03-02T13:26:08;14.60;99.90
8008;DHT22;4049;49.468;11.200;2024-03-02T13:28:36;14.50;99.90
8008;DHT22;4049;49.468;11.200;2024-03-02T13:31:04;14.40;99.90
8008;DHT22;4049;49.468;11.200;2024-03-02T13:33:31;14.30;99.90
8008;DHT22;4049;49.468;11.200;2024-03-02T13:35:58;14.20;99.90
8008;DHT22;4049;49.468;11.200;2024-03-02T13:38:27;14.10;99.90
8008;DHT22;4049;49.468;11.200;2024-03-02T13:40:55;14.20;99.90
8008;DHT22;4049;49.468;11.200;2024-03-02T13:43:22;14.20;99.90
8008;DHT22;4049;49.468;11.200;2024-03-02T13:45:49;14.20;99.90
8008;DHT22;4049;49.468;11.200;2024-03-02T13:48:17;14.30;99.90
8008;DHT22;4049;49.468;11.200;2024-03-02T13:50:44;14.50;99.90
8008;DHT22;4049;49.468;11.200;2024-03-02T13:53:12;14.60;99.90
8008;DHT22;4049;49.468;11.200;2024-03-02T13:55:38;14.60;99.90
8008;DHT22;4049;49.468;11.200;2024-03-02T13:58:08;14.70;99.90
8008;DHT22;4049;49.468;11.200;2024-03-02T14:00:36;14.70;99.90
8008;DHT22;4049;49.468;11.200;2024-03-02T14:03:04;14.60;99.90
8008;DHT22;4049;49.468;11.200;2024-03-02T14:05:32;14.60;99.90
8008;DHT22;4049;49.468;11.200;2024-03-02T14:07:59;14.60;99.90
8008;DHT22;4049;49.468;11.200;2024-03-02T14:10:26;14.50;99.90
8008;DHT22;4049;49.468;11.200;2024-03-02T14:12:54;14.50;99.90
8008;DHT22;4049;49.468;11.200;2024-03-02T14:15:23;14.50;99.90
8008;DHT22;4049;49.468;11.200;2024-03-02T14:17:50;14.50;99.90
8008;DHT22;4049;49.468;11.200;2024-03-02T14:20:17;14.50;99.90
8008;DHT22;4049;49.468;11.200;2024-03-02T14:22:48;14.50;99.90
8008;DHT22;4049;49.468;11.200;2024-03-02T14:25:14;14.50;99.90
8008;DHT22;4049;49.468;11.200;2024-03-02T14:27:42;14.50;99.90
8008;DHT22;4049;49.468;11.200;2024-03-02T14:30:10;14.40;99.90
8008;DHT22;4049;49.468;11.200;2024-03-02T14:32:38;14.40;99.90
8008;DHT22;4049;49.468;11.200;2024-03-02T14:35:05;14.40;99.90
8008;DHT22;4049;49.468;11.200;2024-03-02T14:37:35;14.40;99.90
8008;DHT22;4049;49.468;11.200;2024-03-02T14:40:02;14.40;99.90
8008;DHT22;4049;49.468;11.200;2024-03-02T14:42:32;14.40;99.90
8008;DHT22;4049;49.468;11.200;2024-03-02T14:44:58;14.40;99.90
8008;DHT22;4049;49.468;11.200;2024-03-02T14:47:25;14.50;99.90
8008;DHT22;4049;49.468;11.200;2024-03-02T14:49:54;14.40;99.90
8008;DHT22;4049;49.468;11.200;2024-03-02T14:52:21;14.40;99.90
8008;DHT22;4049;49.468;11.200;2024-03-02T14:54:48;14.40;99.90
8008;DHT22;4049;49.468;11.200;2024-03-02T14:57:14;14.30;99.90
8008;DHT22;4049;49.468;11.200;2024-03-02T14:59:41;14.30;99.90
8008;DHT22;4049;49.468;11.200;2024-03-02T15:02:09;14.20;99.90
8008;DHT22;4049;49.468;11.200;2024-03-02T15:04:36;14.10;99.90
8008;DHT22;4049;49.468;11.200;2024-03-02T15:07:04;14.10;99.90
8008;DHT22;4049;49.468;11.200;2024-03-02T15:09:31;14.00;99.90
8008;DHT22;4049;49.468;11.200;2024-03-02T15:12:00;13.90;99.90
8008;DHT22;4049;49.468;11.200;2024-03-02T15:14:27;13.90;99.90
8008;DHT22;4049;49.468;11.200;2024-03-02T15:16:54;13.80;99.90
8008;DHT22;4049;49.468;11.200;2024-03-02T15:19:21;13.80;99.90
8008;DHT22;4049;49.468;11.200;2024-03-02T15:21:48;13.70;99.90
8008;DHT22;4049;49.468;11.200;2024-03-02T15:24:17;13.60;99.90
8008;DHT22;4049;49.468;11.200;2024-03-02T15:26:43;13.60;99.90
8008;DHT22;4049;49.468;11.200;2024-03-02T15:29:10;13.50;99.90
8008;DHT22;4049;49.468;11.200;2024-03-02T15:31:37;13.40;99.90
8008;DHT22;4049;49.468;11.200;2024-03-02T15:34:04;13.30;99.90
8008;DHT22;4049;49.468;11.200;2024-03-02T15:36:33;13.20;99.90
8008;DHT22;4049;49.468;11.200;2024-03-02T15:39:00;13.10;99.90
8008;DHT22;4049;49.468;11.200;2024-03-02T15:41:29;13.10;99.90
8008;DHT22;4049;49.468;11.200;2024-03-02T15:43:56;13.10;99.90
8008;DHT22;4049;49.468;11.200;2024-03-02T15:46:23;13.00;99.90
8008;DHT22;4049;49.468;11.200;2024-03-02T15:48:50;13.00;99.90
8008;DHT22;4049;49.468;11.200;2024-03-02T15:51:17;12.90;99.90
8008;DHT22;4049;49.468;11.200;2024-03-02T15:53:44;12.80;99.90
8008;DHT22;4049;49.468;11.200;2024-03-02T15:56:11;12.80;99.90
8008;DHT22;4049;49.468;11.200;2024-03-02T15:58:39;12.70;99.90
8008;DHT22;4049;49.468;11.200;2024-03-02T16:01:06;12.60;99.90